createdAt,value
2023-03-03T00:00:50.119Z,9.20
2023-03-03T00:03:20.736Z,8.80
2023-03-03T00:05:50.779Z,9.30
2023-03-03T00:08:19.953Z,9.80
2023-03-03T00:10:50.980Z,10.40
2023-03-03T00:13:25.930Z,10.50
2023-03-03T00:15:54.905Z,8.00
2023-03-03T00:18:34.375Z,9.20
2023-03-03T00:21:03.976Z,9.20
2023-03-03T00:23:40.658Z,9.30
2023-03-03T00:26:23.521Z,8.50
2023-03-03T00:28:55.298Z,8.20
2023-03-03T00:31:30.654Z,8.20
2023-03-03T00:34:16.704Z,8.20
2023-03-03T00:36:47.163Z,7.70
2023-03-03T00:39:36.226Z,8.30
2023-03-03T00:42:16.818Z,7.00
2023-03-03T00:44:49.345Z,8.10
2023-03-03T00:47:54.226Z,6.80
2023-03-03T00:50:35.489Z,7.30
2023-03-03T00:53:05.456Z,7.40
2023-03-03T00:55:34.493Z,8.20
2023-03-03T00:58:04.226Z,7.40
2023-03-03T01:00:36.197Z,7.70
2023-03-03T01:03:07.648Z,8.60
2023-03-03T01:08:06.284Z,6.60
2023-03-03T01:10:51.603Z,7.30
2023-03-03T01:13:22.492Z,7.00
2023-03-03T01:15:51.000Z,6.90
2023-03-03T01:18:19.932Z,7.40
2023-03-03T01:20:48.400Z,6.70
2023-03-03T01:23:20.254Z,7.10
2023-03-03T01:25:49.914Z,7.60
2023-03-03T01:28:18.447Z,7.00
2023-03-03T01:30:47.402Z,7.30
2023-03-03T01:33:17.570Z,6.80
2023-03-03T01:35:51.213Z,7.70
2023-03-03T01:38:20.356Z,6.70
2023-03-03T01:40:59.450Z,7.20
2023-03-03T01:43:31.226Z,8.40
2023-03-03T01:45:59.513Z,7.90
2023-03-03T01:51:49.483Z,7.90
2023-03-03T01:54:24.422Z,7.90
2023-03-03T01:56:53.346Z,9.30
2023-03-03T01:59:24.840Z,7.80
2023-03-03T02:01:53.602Z,7.80
2023-03-03T02:04:26.551Z,7.70
2023-03-03T02:06:58.448Z,8.00
2023-03-03T02:10:26.371Z,8.70
2023-03-03T02:12:58.101Z,8.60
2023-03-03T02:15:27.573Z,9.10
2023-03-03T02:17:58.129Z,7.80
2023-03-03T02:20:45.545Z,9.60
2023-03-03T02:23:27.443Z,8.00
2023-03-03T02:26:00.526Z,8.10
2023-03-03T02:28:31.253Z,7.50
2023-03-03T02:31:01.032Z,7.10
2023-03-03T02:33:30.669Z,7.30
2023-03-03T02:35:59.524Z,7.50
2023-03-03T02:38:42.382Z,7.10
2023-03-03T02:41:23.198Z,6.60
2023-03-03T02:44:02.483Z,6.10
2023-03-03T02:46:36.601Z,6.00
2023-03-03T02:49:05.334Z,7.00
2023-03-03T02:51:34.579Z,6.80
2023-03-03T02:54:03.363Z,6.60
2023-03-03T02:56:33.317Z,5.60
2023-03-03T02:59:02.296Z,5.70
2023-03-03T03:01:37.232Z,6.30
2023-03-03T03:04:09.513Z,6.70
2023-03-03T03:06:39.802Z,5.70
2023-03-03T03:09:09.400Z,6.40
2023-03-03T03:11:38.429Z,6.40
2023-03-03T03:14:10.795Z,6.00
2023-03-03T03:16:40.646Z,7.20
2023-03-03T03:19:09.286Z,6.80
2023-03-03T03:21:38.472Z,5.80
2023-03-03T03:24:07.673Z,5.80
2023-03-03T03:26:36.756Z,6.70
2023-03-03T03:29:07.855Z,6.50
2023-03-03T03:31:36.891Z,7.10
2023-03-03T03:34:05.373Z,6.30
2023-03-03T03:36:34.064Z,7.10
2023-03-03T03:39:22.735Z,6.00
2023-03-03T03:41:53.671Z,6.40
2023-03-03T03:44:24.088Z,6.50
2023-03-03T03:46:52.768Z,7.40
2023-03-03T03:49:21.964Z,6.20
2023-03-03T03:51:51.569Z,6.10
2023-03-03T03:54:21.797Z,6.60
2023-03-03T03:56:51.302Z,8.20
2023-03-03T03:59:19.836Z,7.70
2023-03-03T04:01:50.626Z,7.20
2023-03-03T04:04:19.819Z,6.70
2023-03-03T04:06:49.562Z,6.90
2023-03-03T04:09:18.224Z,6.40
2023-03-03T04:11:47.825Z,6.70
2023-03-03T04:14:17.535Z,8.10
2023-03-03T04:16:47.758Z,8.50
2023-03-03T04:19:16.552Z,7.80
2023-03-03T04:21:53.240Z,6.30
2023-03-03T04:24:22.116Z,6.50
2023-03-03T04:26:51.307Z,7.10
2023-03-03T04:29:20.425Z,6.70
2023-03-03T04:31:49.497Z,6.80
2023-03-03T04:34:18.904Z,6.50
2023-03-03T04:36:48.196Z,6.50
2023-03-03T04:39:22.535Z,7.90
2023-03-03T04:41:52.025Z,7.60
2023-03-03T04:44:20.609Z,7.90
2023-03-03T04:46:50.630Z,7.40
2023-03-03T04:49:19.354Z,7.90
2023-03-03T04:51:49.260Z,7.90
2023-03-03T04:54:18.234Z,7.90
2023-03-03T04:56:47.019Z,7.70
2023-03-03T04:59:16.263Z,6.90
2023-03-03T05:01:46.710Z,7.30
2023-03-03T05:04:15.339Z,8.40
2023-03-03T05:06:45.334Z,8.10
2023-03-03T05:09:14.668Z,8.90
2023-03-03T05:11:43.320Z,8.20
2023-03-03T05:14:12.822Z,8.60
2023-03-03T05:16:41.300Z,8.10
2023-03-03T05:19:10.210Z,8.00
2023-03-03T05:21:42.997Z,8.80
2023-03-03T05:24:12.692Z,8.90
2023-03-03T05:26:44.146Z,8.00
2023-03-03T05:29:12.722Z,8.50
2023-03-03T05:31:42.396Z,8.90
2023-03-03T05:34:13.216Z,8.10
2023-03-03T05:36:42.109Z,8.70
2023-03-03T05:39:11.407Z,8.70
2023-03-03T05:41:41.370Z,7.70
2023-03-03T05:44:11.907Z,8.90
2023-03-03T05:46:42.865Z,8.80
2023-03-03T05:49:11.418Z,8.10
2023-03-03T05:51:41.166Z,9.10
2023-03-03T05:54:09.775Z,9.20
2023-03-03T05:56:38.211Z,8.20
2023-03-03T05:59:07.400Z,8.00
2023-03-03T06:01:37.656Z,8.00
2023-03-03T06:04:06.309Z,7.50
2023-03-03T06:06:34.986Z,7.30
2023-03-03T06:09:03.661Z,7.30
2023-03-03T06:11:35.636Z,9.30
2023-03-03T06:14:06.434Z,7.60
2023-03-03T06:16:35.095Z,7.20
2023-03-03T06:19:03.974Z,8.50
2023-03-03T06:21:32.438Z,8.00
2023-03-03T06:24:01.021Z,8.40
2023-03-03T06:26:31.986Z,8.50
2023-03-03T06:29:00.741Z,7.60
2023-03-03T06:31:29.168Z,7.70
2023-03-03T06:33:57.905Z,8.00
2023-03-03T06:36:28.936Z,8.00
2023-03-03T06:38:57.838Z,8.10
2023-03-03T06:41:26.417Z,7.70
2023-03-03T06:43:55.119Z,8.40
2023-03-03T06:46:23.687Z,7.90
2023-03-03T06:48:52.922Z,8.90
2023-03-03T06:51:32.332Z,9.10
2023-03-03T06:54:15.801Z,8.40
2023-03-03T06:56:45.705Z,8.40
2023-03-03T06:59:18.685Z,9.10
2023-03-03T07:01:50.424Z,8.40
2023-03-03T07:06:56.027Z,8.60
2023-03-03T07:09:26.444Z,8.00
2023-03-03T07:12:19.633Z,8.50
2023-03-03T07:14:55.703Z,8.90
2023-03-03T07:17:25.496Z,8.70
2023-03-03T07:19:54.236Z,9.40
2023-03-03T07:22:25.688Z,8.60
2023-03-03T07:24:54.991Z,8.90
2023-03-03T07:27:25.445Z,8.30
2023-03-03T07:29:55.274Z,9.00
2023-03-03T07:32:48.701Z,9.40
2023-03-03T07:35:23.355Z,8.00
2023-03-03T07:37:52.214Z,7.90
2023-03-03T07:40:38.271Z,7.50
2023-03-03T07:43:30.789Z,7.70
2023-03-03T07:46:43.010Z,9.10
2023-03-03T07:49:34.987Z,7.60
2023-03-03T07:52:27.132Z,7.70
2023-03-03T07:55:01.186Z,7.40
2023-03-03T07:57:34.130Z,7.60
2023-03-03T08:00:14.715Z,7.60
2023-03-03T08:02:52.609Z,7.10
2023-03-03T08:05:37.459Z,6.90
2023-03-03T08:08:30.347Z,6.90
2023-03-03T08:11:00.039Z,6.40
2023-03-03T08:13:40.477Z,6.70
2023-03-03T08:16:12.113Z,7.00
2023-03-03T08:18:42.768Z,7.00
2023-03-03T08:21:21.731Z,6.80
2023-03-03T08:23:51.767Z,6.30
2023-03-03T08:26:21.216Z,6.30
2023-03-03T08:28:51.323Z,6.20
2023-03-03T08:31:39.727Z,5.80
2023-03-03T08:34:09.992Z,5.90
2023-03-03T08:36:42.512Z,6.20
2023-03-03T08:39:11.998Z,7.10
2023-03-03T08:41:44.177Z,6.40
2023-03-03T08:44:12.635Z,6.60
2023-03-03T08:46:41.174Z,6.30
2023-03-03T08:49:11.633Z,7.10
2023-03-03T08:51:40.444Z,6.80
2023-03-03T08:54:09.106Z,7.00
2023-03-03T08:56:37.995Z,7.00
2023-03-03T08:59:06.577Z,6.40
2023-03-03T09:01:40.356Z,5.50
2023-03-03T09:04:09.218Z,5.50
2023-03-03T09:06:38.175Z,6.20
2023-03-03T09:09:07.517Z,5.90
2023-03-03T09:11:36.872Z,5.80
2023-03-03T09:14:12.748Z,6.00
2023-03-03T09:16:44.228Z,5.80
2023-03-03T09:19:22.278Z,5.90
2023-03-03T09:21:55.098Z,6.20
2023-03-03T09:24:32.758Z,6.80
2023-03-03T09:27:03.196Z,6.90
2023-03-03T09:29:37.707Z,7.00
2023-03-03T09:32:43.439Z,6.50
2023-03-03T09:35:39.237Z,7.40
2023-03-03T09:38:22.528Z,6.90
2023-03-03T09:41:13.629Z,6.30
2023-03-03T09:43:51.996Z,6.40
2023-03-03T09:46:29.760Z,6.70
2023-03-03T09:48:59.814Z,5.70
2023-03-03T09:52:06.506Z,6.10
2023-03-03T09:54:38.559Z,6.70
2023-03-03T09:57:20.233Z,5.60
2023-03-03T10:00:05.001Z,5.90
2023-03-03T10:02:54.106Z,5.80
2023-03-03T10:05:40.569Z,6.40
2023-03-03T10:08:36.558Z,5.10
2023-03-03T10:11:33.170Z,5.80
2023-03-03T10:14:01.875Z,6.40
2023-03-03T10:17:02.913Z,5.90
2023-03-03T10:19:34.262Z,6.10
2023-03-03T10:24:35.325Z,5.60
2023-03-03T10:27:13.346Z,5.80
2023-03-03T10:30:02.390Z,6.70
2023-03-03T10:32:40.101Z,6.10
2023-03-03T10:35:41.698Z,6.10
2023-03-03T10:38:34.678Z,5.70
2023-03-03T10:41:28.129Z,4.60
2023-03-03T10:44:25.849Z,5.10
2023-03-03T10:46:54.729Z,4.80
2023-03-03T10:49:30.078Z,5.00
2023-03-03T10:52:04.992Z,5.20
2023-03-03T10:55:04.627Z,5.70
2023-03-03T10:57:39.118Z,5.10
2023-03-03T11:00:22.993Z,6.00
2023-03-03T11:03:17.308Z,6.90
2023-03-03T11:05:53.390Z,6.50
2023-03-03T11:08:43.758Z,7.10
2023-03-03T11:11:55.818Z,7.20
2023-03-03T11:14:38.599Z,6.60
2023-03-03T11:17:29.091Z,7.80
2023-03-03T11:20:09.879Z,6.60
2023-03-03T11:22:47.817Z,6.50
2023-03-03T11:25:19.055Z,6.70
2023-03-03T11:28:17.734Z,6.40
2023-03-03T11:30:50.478Z,6.40
2023-03-03T11:33:21.157Z,8.00
2023-03-03T11:35:53.072Z,7.20
2023-03-03T11:38:34.960Z,5.70
2023-03-03T11:41:08.676Z,5.90
2023-03-03T11:43:53.168Z,5.80
2023-03-03T11:46:26.942Z,4.50
2023-03-03T11:49:05.806Z,3.80
2023-03-03T11:52:01.958Z,3.60
2023-03-03T11:54:40.349Z,3.30
2023-03-03T11:57:20.205Z,3.30
2023-03-03T12:00:08.459Z,2.70
2023-03-03T12:02:59.004Z,3.40
2023-03-03T12:05:58.780Z,3.60
2023-03-03T12:08:52.824Z,4.00
2023-03-03T12:11:29.254Z,3.90
2023-03-03T12:14:28.958Z,3.60
2023-03-03T12:17:07.085Z,3.90
2023-03-03T12:19:58.428Z,4.30
2023-03-03T12:22:35.578Z,3.80
2023-03-03T12:25:48.948Z,4.20
2023-03-03T12:28:44.223Z,3.70
2023-03-03T12:32:00.244Z,3.70
2023-03-03T12:34:36.888Z,3.90
2023-03-03T12:37:14.436Z,3.80
2023-03-03T12:40:08.848Z,3.80
2023-03-03T12:42:52.965Z,2.90
2023-03-03T12:46:11.188Z,3.40
2023-03-03T12:48:44.513Z,2.90
2023-03-03T12:51:30.596Z,3.20
2023-03-03T12:54:18.306Z,2.20
2023-03-03T12:57:09.649Z,2.60
2023-03-03T13:00:13.647Z,2.30
2023-03-03T13:02:51.396Z,2.10
2023-03-03T13:05:39.246Z,2.50
2023-03-03T13:08:23.780Z,2.70
2023-03-03T13:11:13.220Z,2.50
2023-03-03T13:13:54.223Z,2.00
2023-03-03T13:16:40.390Z,2.40
2023-03-03T13:19:17.584Z,1.50
2023-03-03T13:21:53.653Z,1.80
2023-03-03T13:24:42.728Z,1.90
2023-03-03T13:27:13.492Z,1.90
2023-03-03T13:29:43.756Z,1.50
2023-03-03T13:32:20.373Z,1.70
2023-03-03T13:35:05.602Z,1.60
2023-03-03T13:37:46.153Z,1.60
2023-03-03T13:40:29.768Z,1.80
2023-03-03T13:43:04.154Z,2.00
2023-03-03T13:45:51.511Z,1.80
2023-03-03T13:48:43.703Z,2.50
2023-03-03T13:51:21.718Z,2.50
2023-03-03T13:54:16.900Z,2.60
2023-03-03T13:57:23.588Z,2.50
2023-03-03T14:00:21.558Z,3.20
2023-03-03T14:03:16.707Z,4.20
2023-03-03T14:05:48.442Z,4.50
2023-03-03T14:08:40.060Z,3.70
2023-03-03T14:11:22.558Z,4.10
2023-03-03T14:14:05.575Z,3.90
2023-03-03T14:16:47.371Z,4.20
2023-03-03T14:19:48.608Z,4.20
2023-03-03T14:22:23.970Z,5.10
2023-03-03T14:25:06.273Z,5.80
2023-03-03T14:28:00.049Z,6.50
2023-03-03T14:30:40.025Z,7.90
2023-03-03T14:33:08.706Z,9.60
2023-03-03T14:35:39.609Z,9.50
2023-03-03T14:38:21.909Z,9.30
2023-03-03T14:40:50.858Z,8.70
2023-03-03T14:43:43.175Z,9.10
2023-03-03T14:46:27.213Z,8.00
2023-03-03T14:48:57.883Z,10.10
2023-03-03T14:51:26.402Z,10.10
2023-03-03T14:53:55.007Z,10.30
2023-03-03T14:56:26.778Z,11.50
2023-03-03T14:59:15.959Z,11.50
2023-03-03T15:01:45.238Z,12.10
2023-03-03T15:04:16.769Z,11.90
2023-03-03T15:06:51.083Z,14.80
2023-03-03T15:09:49.054Z,15.10
2023-03-03T15:15:08.899Z,13.40
2023-03-03T15:17:40.138Z,14.50
2023-03-03T15:20:39.321Z,13.10
2023-03-03T15:23:30.108Z,12.10
2023-03-03T15:26:20.589Z,10.80
2023-03-03T15:29:20.515Z,12.30
2023-03-03T15:32:05.877Z,12.00
2023-03-03T15:34:37.137Z,13.20
2023-03-03T15:39:56.832Z,12.80
2023-03-03T15:42:39.917Z,14.70
2023-03-03T15:45:27.603Z,13.70
2023-03-03T15:48:04.205Z,12.60
2023-03-03T15:50:42.342Z,11.10
2023-03-03T15:53:35.943Z,10.70
2023-03-03T15:56:15.826Z,8.70
2023-03-03T15:59:23.449Z,10.30
2023-03-03T16:02:04.447Z,10.00
2023-03-03T16:04:34.883Z,10.00
2023-03-03T16:07:10.974Z,11.50
2023-03-03T16:09:42.083Z,11.50
2023-03-03T16:12:38.425Z,10.80
2023-03-03T16:15:15.606Z,12.30
2023-03-03T16:17:59.352Z,12.20
2023-03-03T16:24:55.462Z,10.70
2023-03-03T16:27:46.230Z,9.60
2023-03-03T16:30:20.737Z,10.00
2023-03-03T16:33:21.160Z,10.90
2023-03-03T16:36:00.090Z,11.40
2023-03-03T16:38:40.620Z,10.50
2023-03-03T16:41:14.236Z,9.90
2023-03-03T16:43:46.326Z,9.60
2023-03-03T16:46:37.531Z,10.00
2023-03-03T16:52:04.501Z,11.10
2023-03-03T16:55:19.064Z,11.30
2023-03-03T16:58:16.220Z,11.40
2023-03-03T17:01:05.723Z,10.80
2023-03-03T17:03:41.138Z,11.80
2023-03-03T17:06:57.942Z,11.10
2023-03-03T17:09:39.796Z,11.60
2023-03-03T17:12:08.539Z,10.90
2023-03-03T17:14:44.704Z,12.70
2023-03-03T17:17:24.383Z,13.30
2023-03-03T17:20:37.348Z,13.10
2023-03-03T17:23:24.933Z,12.40
2023-03-03T17:26:03.343Z,14.70
2023-03-03T17:29:01.108Z,14.70
2023-03-03T17:31:41.321Z,14.20
2023-03-03T17:34:22.657Z,14.10
2023-03-03T17:37:09.110Z,15.00
2023-03-03T17:40:04.313Z,14.00
2023-03-03T17:42:56.853Z,15.80
2023-03-03T17:45:26.621Z,15.60
2023-03-03T17:48:08.868Z,12.90
2023-03-03T17:50:47.590Z,12.30
2023-03-03T17:53:15.952Z,10.30
2023-03-03T17:56:05.649Z,11.00
2023-03-03T17:58:42.945Z,11.40
2023-03-03T18:01:20.994Z,11.10
2023-03-03T18:04:01.887Z,10.20
2023-03-03T18:06:48.414Z,9.90
2023-03-03T18:09:55.714Z,10.30
2023-03-03T18:12:24.742Z,9.40
2023-03-03T18:15:20.643Z,9.80
2023-03-03T18:18:27.374Z,9.90
2023-03-03T18:21:06.082Z,8.80
2023-03-03T18:23:42.115Z,8.40
2023-03-03T18:26:29.120Z,8.90
2023-03-03T18:29:13.389Z,8.70
2023-03-03T18:32:02.898Z,8.80
2023-03-03T18:34:52.785Z,8.60
2023-03-03T18:37:30.509Z,9.20
2023-03-03T18:40:01.972Z,8.60
2023-03-03T18:42:44.398Z,8.50
2023-03-03T18:45:19.648Z,7.90
2023-03-03T18:48:11.431Z,8.50
2023-03-03T18:50:48.831Z,8.60
2023-03-03T18:53:18.536Z,8.70
2023-03-03T18:55:50.707Z,8.40
2023-03-03T18:58:19.151Z,8.90
2023-03-03T19:03:33.400Z,8.20
2023-03-03T19:08:53.953Z,9.00
2023-03-03T19:11:41.922Z,8.90
2023-03-03T19:14:21.068Z,8.60
2023-03-03T19:16:52.686Z,8.50
2023-03-03T19:19:35.094Z,8.80
2023-03-03T19:22:22.027Z,10.00
2023-03-03T19:25:14.138Z,9.70
2023-03-03T19:28:09.285Z,8.40
2023-03-03T19:30:57.318Z,9.00
2023-03-03T19:33:35.196Z,9.50
2023-03-03T19:36:19.440Z,9.70
2023-03-03T19:39:06.321Z,9.70
2023-03-03T19:41:48.105Z,9.40
2023-03-03T19:44:52.222Z,9.20
2023-03-03T19:47:31.135Z,10.00
2023-03-03T19:50:38.276Z,9.60
2023-03-03T19:53:28.538Z,10.30
2023-03-03T19:56:18.876Z,8.90
2023-03-03T19:59:06.147Z,9.10
2023-03-03T20:01:46.491Z,10.00
2023-03-03T20:04:25.697Z,10.80
2023-03-03T20:07:04.245Z,10.90
2023-03-03T20:09:54.292Z,10.70
2023-03-03T20:12:27.712Z,10.50
2023-03-03T20:15:15.145Z,11.00
2023-03-03T20:18:14.392Z,10.90
2023-03-03T20:21:22.205Z,10.40
2023-03-03T20:24:37.416Z,11.40
2023-03-03T20:27:14.823Z,11.40
2023-03-03T20:30:25.447Z,10.70
2023-03-03T20:32:53.821Z,10.90
2023-03-03T20:35:37.714Z,10.90
2023-03-03T20:38:18.634Z,9.70
2023-03-03T20:41:15.276Z,11.10
2023-03-03T20:44:00.140Z,11.70
2023-03-03T20:46:39.482Z,11.60
2023-03-03T20:49:20.044Z,11.70
2023-03-03T20:52:01.050Z,10.80
2023-03-03T20:54:41.668Z,11.60
2023-03-03T20:57:19.585Z,12.00
2023-03-03T21:00:19.405Z,10.30
2023-03-03T21:02:55.065Z,9.70
2023-03-03T21:05:23.739Z,11.00
2023-03-03T21:07:55.826Z,11.90
2023-03-03T21:10:26.270Z,10.50
2023-03-03T21:12:58.556Z,11.70
2023-03-03T21:15:31.570Z,11.20
2023-03-03T21:18:00.696Z,12.30
2023-03-03T21:20:34.508Z,11.30
2023-03-03T21:23:03.383Z,11.20
2023-03-03T21:25:41.086Z,11.20
2023-03-03T21:28:32.294Z,11.90
2023-03-03T21:31:15.847Z,12.30
2023-03-03T21:33:49.036Z,13.00
2023-03-03T21:36:37.873Z,11.00
2023-03-03T21:39:36.462Z,11.80
2023-03-03T21:42:16.716Z,11.20
2023-03-03T21:44:50.035Z,11.40
2023-03-03T21:47:22.792Z,11.40
2023-03-03T21:50:00.596Z,11.20
2023-03-03T21:52:29.382Z,12.00
2023-03-03T21:54:58.067Z,11.80
2023-03-03T21:57:26.974Z,11.20
2023-03-03T21:59:58.008Z,11.10
2023-03-03T22:02:26.723Z,10.80
2023-03-03T22:04:55.156Z,12.10
2023-03-03T22:07:23.817Z,11.00
2023-03-03T22:09:53.359Z,10.80
2023-03-03T22:12:21.640Z,10.50
2023-03-03T22:14:56.013Z,11.00
2023-03-03T22:17:25.711Z,10.30
2023-03-03T22:19:55.837Z,10.30
2023-03-03T22:22:24.811Z,10.20
2023-03-03T22:24:54.009Z,10.80
2023-03-03T22:27:23.998Z,10.50
2023-03-03T22:29:52.918Z,11.20
2023-03-03T22:32:21.421Z,10.80
2023-03-03T22:34:51.024Z,11.00
2023-03-03T22:37:19.905Z,9.90
2023-03-03T22:39:48.484Z,10.20
2023-03-03T22:42:17.073Z,10.10
2023-03-03T22:44:46.126Z,10.80
2023-03-03T22:47:15.726Z,10.50
2023-03-03T22:49:44.255Z,9.70
2023-03-03T22:52:12.871Z,10.30
2023-03-03T22:54:42.666Z,10.50
2023-03-03T22:57:11.530Z,9.30
2023-03-03T22:59:40.126Z,10.40
2023-03-03T23:02:09.141Z,10.60
2023-03-03T23:04:37.746Z,9.90
2023-03-03T23:07:07.932Z,12.10
2023-03-03T23:09:41.372Z,10.20
2023-03-03T23:12:17.999Z,9.70
2023-03-03T23:14:48.687Z,9.90
2023-03-03T23:17:17.615Z,10.70
2023-03-03T23:19:50.315Z,11.50
2023-03-03T23:22:19.121Z,10.50
2023-03-03T23:24:47.747Z,10.70
2023-03-03T23:27:18.013Z,11.00
2023-03-03T23:29:46.485Z,11.70
2023-03-03T23:32:14.988Z,10.60
2023-03-03T23:34:44.156Z,11.10
2023-03-03T23:37:16.312Z,10.80
2023-03-03T23:39:44.901Z,10.30
2023-03-03T23:42:13.483Z,11.60
2023-03-03T23:44:41.989Z,11.10
2023-03-03T23:47:15.462Z,11.40
2023-03-03T23:49:44.055Z,10.80
2023-03-03T23:52:12.529Z,11.60
2023-03-03T23:54:41.113Z,10.50
2023-03-03T23:57:09.568Z,10.40
2023-03-03T23:59:38.072Z,12.90
